Time;durP1;ratioP1;P1;durP2;ratioP2;P2;SDS_P1;SDS_P2;PMS_P1;PMS_P2;Temp;Humidity;BMP_temperature;BMP_pressure;BME280_temperature;BME280_humidity;BME280_pressure;Samples;Min_cycle;Max_cycle;Signal;HPM_P1;HPM_P2
2023/06/08 00:02:24;;;;;;;3.75;3.15;;;18.90;99.90;;;;;;5022635;28;20046;-77
2023/06/08 00:04:52;;;;;;;4.72;2.78;;;18.90;99.90;;;;;;5022330;28;20188;-76
2023/06/08 00:07:21;;;;;;;4.28;3.30;;;18.80;99.90;;;;;;5021719;28;20079;-77
2023/06/08 00:09:50;;;;;;;4.38;2.75;;;18.80;99.90;;;;;;5025208;28;20060;-76
2023/06/08 00:12:18;;;;;;;4.25;3.30;;;18.80;99.90;;;;;;5029015;28;20092;-76
2023/06/08 00:14:45;;;;;;;4.38;2.70;;;18.80;99.90;;;;;;5013867;28;20080;-77
2023/06/08 00:17:13;;;;;;;3.10;2.70;;;18.70;99.90;;;;;;5012337;28;20049;-77
2023/06/08 00:19:42;;;;;;;3.35;2.72;;;18.70;99.90;;;;;;5028466;28;20498;-76
2023/06/08 00:22:12;;;;;;;4.10;3.65;;;18.70;99.90;;;;;;5014762;28;20554;-76
2023/06/08 00:24:39;;;;;;;5.18;3.35;;;18.70;99.90;;;;;;5017902;28;20124;-77
2023/06/08 00:27:07;;;;;;;4.40;3.40;;;18.60;99.90;;;;;;5018975;28;20116;-77
2023/06/08 00:29:34;;;;;;;5.30;3.33;;;18.60;99.90;;;;;;5015821;28;20053;-77
2023/06/08 00:32:01;;;;;;;3.95;3.20;;;18.60;99.90;;;;;;5018760;28;20481;-76
2023/06/08 00:34:28;;;;;;;5.22;3.13;;;18.60;99.90;;;;;;5030410;28;20096;-76
2023/06/08 00:36:55;;;;;;;4.15;2.88;;;18.50;99.90;;;;;;5027924;28;20136;-76
2023/06/08 00:39:22;;;;;;;5.75;3.45;;;18.50;99.90;;;;;;5030869;28;20050;-76
2023/06/08 00:41:49;;;;;;;3.88;3.33;;;18.50;99.90;;;;;;5035455;28;20048;-77
2023/06/08 00:44:16;;;;;;;4.75;3.65;;;18.40;99.90;;;;;;5018567;28;20069;-76
2023/06/08 00:46:43;;;;;;;6.60;3.67;;;18.40;99.90;;;;;;5017793;28;20057;-76
2023/06/08 00:49:15;;;;;;;4.55;3.13;;;18.40;99.90;;;;;;5021401;28;20686;-77
2023/06/08 00:51:43;;;;;;;5.90;3.40;;;18.30;99.90;;;;;;5022444;28;20457;-77
2023/06/08 00:54:12;;;;;;;4.30;3.58;;;18.30;99.90;;;;;;5022527;28;20459;-76
2023/06/08 00:56:40;;;;;;;5.32;3.28;;;18.30;99.90;;;;;;5026542;28;20049;-76
2023/06/08 00:59:09;;;;;;;5.20;3.38;;;18.30;99.90;;;;;;5026200;28;20049;-77
2023/06/08 01:01:38;;;;;;;5.60;3.67;;;18.30;99.90;;;;;;5042152;28;20128;-76
2023/06/08 01:04:05;;;;;;;5.75;3.47;;;18.20;99.90;;;;;;5031160;28;20042;-77
2023/06/08 01:06:46;;;;;;;6.15;3.60;;;18.30;99.90;;;;;;5024574;28;20071;-76
2023/06/08 01:09:42;;;;;;;4.47;3.72;;;18.20;99.90;;;;;;5027446;28;20095;-76
2023/06/08 01:12:24;;;;;;;4.57;3.30;;;18.20;99.90;;;;;;5021597;28;20045;-77
2023/06/08 01:15:06;;;;;;;5.50;3.88;;;18.20;99.90;;;;;;5019579;28;20112;-76
2023/06/08 01:17:41;;;;;;;6.45;3.40;;;18.20;99.90;;;;;;5021129;28;20116;-76
2023/06/08 01:20:12;;;;;;;5.82;3.25;;;18.10;99.90;;;;;;5021460;28;20038;-76
2023/06/08 01:23:03;;;;;;;4.38;3.58;;;18.10;99.90;;;;;;5024165;28;20107;-77
2023/06/08 01:25:32;;;;;;;8.45;3.65;;;18.10;99.90;;;;;;5023297;28;20046;-76
2023/06/08 01:28:12;;;;;;;4.07;3.27;;;18.00;99.90;;;;;;5026906;28;20104;-77
2023/06/08 01:30:49;;;;;;;4.03;3.22;;;18.00;99.90;;;;;;5024372;28;20050;-77
2023/06/08 01:33:19;;;;;;;9.00;4.20;;;18.00;99.90;;;;;;5031347;28;20072;-77
2023/06/08 01:35:59;;;;;;;3.63;3.15;;;17.90;99.90;;;;;;5027565;28;20053;-76
2023/06/08 01:38:40;;;;;;;6.93;3.47;;;17.90;99.90;;;;;;5029851;28;20046;-76
2023/06/08 01:41:17;;;;;;;7.50;3.92;;;17.90;99.90;;;;;;5020625;28;20077;-76
2023/06/08 01:43:47;;;;;;;9.52;3.25;;;17.80;99.90;;;;;;5015728;28;20042;-77
2023/06/08 01:46:16;;;;;;;12.50;3.85;;;17.80;99.90;;;;;;5030486;28;20125;-76
2023/06/08 01:48:45;;;;;;;8.73;4.40;;;17.80;99.90;;;;;;5018906;28;20064;-77
2023/06/08 01:51:13;;;;;;;6.22;4.03;;;17.80;99.90;;;;;;5018974;28;20160;-76
2023/06/08 01:53:41;;;;;;;4.03;3.35;;;17.70;99.90;;;;;;5022539;28;20053;-77
2023/06/08 01:56:09;;;;;;;5.47;4.03;;;17.70;99.90;;;;;;5024563;28;20049;-76
2023/06/08 01:58:36;;;;;;;5.72;3.72;;;17.70;99.90;;;;;;5019959;28;20095;-76
2023/06/08 02:01:02;;;;;;;6.13;3.83;;;17.70;99.90;;;;;;5025310;28;20041;-76
2023/06/08 02:03:29;;;;;;;3.80;2.97;;;17.70;99.90;;;;;;5023252;28;20050;-77
2023/06/08 02:05:56;;;;;;;6.22;4.00;;;17.60;99.90;;;;;;5023832;28;20073;-76
2023/06/08 02:08:23;;;;;;;4.68;3.78;;;17.60;99.90;;;;;;5027376;28;20099;-76
2023/06/08 02:10:49;;;;;;;4.38;3.53;;;17.60;99.90;;;;;;5014066;28;20082;-76
2023/06/08 02:13:16;;;;;;;6.78;3.60;;;17.60;99.90;;;;;;5014920;28;20054;-76
2023/06/08 02:15:43;;;;;;;5.88;3.90;;;17.60;99.90;;;;;;5017850;28;20054;-76
2023/06/08 02:18:10;;;;;;;3.95;3.28;;;17.50;99.90;;;;;;5017378;28;20058;-76
2023/06/08 02:20:36;;;;;;;9.50;4.82;;;17.50;99.90;;;;;;5017120;28;20085;-76
2023/06/08 02:23:03;;;;;;;4.78;3.40;;;17.50;99.90;;;;;;5020626;28;20048;-77
2023/06/08 02:25:30;;;;;;;5.25;3.30;;;17.50;99.90;;;;;;5023964;28;20128;-76
2023/06/08 02:27:57;;;;;;;6.85;3.90;;;17.40;99.90;;;;;;5023945;28;20054;-76
2023/06/08 02:30:25;;;;;;;4.80;4.10;;;17.40;99.90;;;;;;5023582;28;20058;-76
2023/06/08 02:32:53;;;;;;;7.43;4.30;;;17.40;99.90;;;;;;5028067;28;20049;-76
2023/06/08 02:35:20;;;;;;;5.22;3.83;;;17.40;99.90;;;;;;5026033;28;20434;-76
2023/06/08 02:37:46;;;;;;;7.78;3.55;;;17.40;99.90;;;;;;5023782;28;20052;-77
2023/06/08 02:40:13;;;;;;;5.35;3.53;;;17.30;99.90;;;;;;5013583;28;20080;-76
2023/06/08 02:42:40;;;;;;;5.38;3.42;;;17.30;99.90;;;;;;5016196;28;20049;-76
2023/06/08 02:45:08;;;;;;;5.43;3.75;;;17.30;99.90;;;;;;5017451;28;20589;-76
2023/06/08 02:47:34;;;;;;;3.67;3.17;;;17.30;99.90;;;;;;5016334;28;20086;-76
2023/06/08 02:50:01;;;;;;;5.60;3.30;;;17.30;99.90;;;;;;5018837;28;20049;-76
2023/06/08 02:52:28;;;;;;;3.92;3.35;;;17.20;99.90;;;;;;5018379;28;20115;-76
2023/06/08 02:54:55;;;;;;;4.75;3.75;;;17.20;99.90;;;;;;5038366;28;20049;-77
2023/06/08 02:57:22;;;;;;;5.07;3.72;;;17.20;99.90;;;;;;5025506;28;20064;-76
2023/06/08 02:59:48;;;;;;;8.25;4.00;;;17.20;99.90;;;;;;5021502;28;20045;-76
2023/06/08 03:02:15;;;;;;;4.55;3.95;;;17.20;99.90;;;;;;5027039;28;20524;-76
2023/06/08 03:04:45;;;;;;;4.25;3.50;;;17.10;99.90;;;;;;5027729;28;20484;-76
2023/06/08 03:07:15;;;;;;;4.22;3.72;;;17.10;99.90;;;;;;5022069;28;20092;-77
2023/06/08 03:09:42;;;;;;;5.03;4.38;;;17.10;99.90;;;;;;5013676;28;20076;-76
2023/06/08 03:12:13;;;;;;;9.15;3.60;;;17.10;99.90;;;;;;5014996;28;20461;-76
2023/06/08 03:14:40;;;;;;;4.65;3.55;;;17.00;99.90;;;;;;5016596;28;20045;-76
2023/06/08 03:17:07;;;;;;;7.35;3.58;;;17.00;99.90;;;;;;5014447;28;20489;-77
2023/06/08 03:19:35;;;;;;;4.88;4.22;;;17.00;99.90;;;;;;5019201;28;20444;-76
2023/06/08 03:22:06;;;;;;;5.93;3.97;;;17.00;99.90;;;;;;5017259;28;20050;-77
2023/06/08 03:24:34;;;;;;;4.50;3.63;;;16.90;99.90;;;;;;5023454;28;20048;-76
2023/06/08 03:27:02;;;;;;;5.03;4.18;;;16.90;99.90;;;;;;5023226;28;20038;-76
2023/06/08 03:29:30;;;;;;;5.45;3.70;;;16.90;99.90;;;;;;5022051;28;20045;-76
2023/06/08 03:31:57;;;;;;;5.43;3.58;;;16.90;99.90;;;;;;5026477;28;20119;-76
2023/06/08 03:34:25;;;;;;;4.65;3.80;;;16.90;99.90;;;;;;5028166;28;20061;-76
2023/06/08 03:36:53;;;;;;;7.15;3.97;;;16.90;99.90;;;;;;5012448;28;20049;-76
2023/06/08 03:39:20;;;;;;;6.05;3.92;;;16.90;99.90;;;;;;5013471;28;20046;-76
2023/06/08 03:41:47;;;;;;;4.93;3.83;;;16.80;99.90;;;;;;5014563;28;20476;-76
2023/06/08 03:44:15;;;;;;;10.25;3.97;;;16.90;99.90;;;;;;5016926;28;20049;-76
2023/06/08 03:46:42;;;;;;;5.35;3.60;;;16.80;99.90;;;;;;5019167;28;20053;-77
2023/06/08 03:49:09;;;;;;;4.25;3.80;;;16.80;99.90;;;;;;5020343;28;20638;-76
2023/06/08 03:51:35;;;;;;;5.28;4.28;;;16.80;99.90;;;;;;5016489;28;20460;-77
2023/06/08 03:54:02;;;;;;;5.93;3.88;;;16.80;99.90;;;;;;5023084;28;20406;-76
2023/06/08 03:56:29;;;;;;;5.20;3.72;;;16.80;99.90;;;;;;5025227;28;20053;-77
2023/06/08 03:58:56;;;;;;;8.00;3.92;;;16.80;99.90;;;;;;5020236;28;20100;-77
2023/06/08 04:01:23;;;;;;;4.43;4.03;;;16.80;99.90;;;;;;5024380;28;20076;-77
2023/06/08 04:03:50;;;;;;;7.60;4.25;;;16.80;99.90;;;;;;5029023;28;20049;-76
2023/06/08 04:06:18;;;;;;;4.60;4.07;;;16.80;99.90;;;;;;5016061;28;20486;-76
2023/06/08 04:08:45;;;;;;;5.95;4.80;;;16.90;99.90;;;;;;5024082;23;20641;-77
2023/06/08 04:11:12;;;;;;;5.18;3.83;;;16.90;99.90;;;;;;4960554;28;20051;-80
2023/06/08 04:13:40;;;;;;;6.50;3.60;;;16.90;99.90;;;;;;4968416;28;20055;-80
2023/06/08 04:16:09;;;;;;;6.82;4.03;;;16.90;99.90;;;;;;4970909;28;20047;-79
2023/06/08 04:18:37;;;;;;;6.55;4.05;;;16.90;99.90;;;;;;4965961;28;20423;-79
2023/06/08 04:21:05;;;;;;;5.10;3.80;;;16.90;99.90;;;;;;4966484;28;20057;-80
2023/06/08 04:23:33;;;;;;;5.30;4.03;;;16.80;99.90;;;;;;4964683;28;20510;-79
2023/06/08 04:26:06;;;;;;;8.13;4.15;;;16.80;99.90;;;;;;4965517;28;20569;-79
2023/06/08 04:28:33;;;;;;;5.25;4.43;;;16.90;99.90;;;;;;4965434;28;20051;-82
2023/06/08 04:31:00;;;;;;;7.70;3.97;;;16.80;99.90;;;;;;4966078;28;20070;-80
2023/06/08 04:33:27;;;;;;;5.63;4.13;;;16.80;99.90;;;;;;4960708;28;20048;-80
2023/06/08 04:35:55;;;;;;;6.85;3.90;;;16.80;99.90;;;;;;4965662;28;20047;-80
2023/06/08 04:38:22;;;;;;;5.93;3.88;;;16.90;99.90;;;;;;4965397;28;20078;-80
2023/06/08 04:40:52;;;;;;;4.90;3.70;;;16.90;99.90;;;;;;4972577;28;20074;-79
2023/06/08 04:43:21;;;;;;;5.93;4.28;;;17.00;99.90;;;;;;4968801;28;20110;-81
2023/06/08 04:45:55;;;;;;;6.90;4.65;;;17.00;99.90;;;;;;4969032;28;20047;-80
2023/06/08 04:48:24;;;;;;;4.97;3.72;;;17.10;99.90;;;;;;4966442;28;20059;-79
2023/06/08 04:50:52;;;;;;;4.65;3.78;;;17.10;99.90;;;;;;4968796;28;20051;-80
2023/06/08 04:53:21;;;;;;;5.20;3.78;;;17.20;99.90;;;;;;4964713;28;20058;-77
2023/06/08 04:55:48;;;;;;;5.45;3.88;;;17.20;99.90;;;;;;4968627;28;20054;-80
2023/06/08 04:58:15;;;;;;;4.50;3.70;;;17.30;99.90;;;;;;4971336;28;20086;-80
2023/06/08 05:00:42;;;;;;;5.75;4.05;;;17.40;99.90;;;;;;4974825;28;20146;-80
2023/06/08 05:03:09;;;;;;;4.15;3.70;;;17.50;99.90;;;;;;4960068;28;20139;-79
2023/06/08 05:05:36;;;;;;;6.60;3.85;;;17.60;99.90;;;;;;4963790;28;20496;-79
2023/06/08 05:08:03;;;;;;;5.82;3.60;;;17.60;99.90;;;;;;4967119;28;20047;-79
2023/06/08 05:10:30;;;;;;;4.90;3.97;;;17.80;99.90;;;;;;4965523;28;20542;-79
2023/06/08 05:12:57;;;;;;;5.78;3.85;;;17.80;99.90;;;;;;4969416;28;20047;-80
2023/06/08 05:15:25;;;;;;;8.52;3.65;;;17.90;99.90;;;;;;4985067;28;20059;-80
2023/06/08 05:17:52;;;;;;;6.82;4.15;;;18.00;99.90;;;;;;4971568;28;20054;-80
2023/06/08 05:20:22;;;;;;;5.82;4.13;;;18.10;99.90;;;;;;4972782;28;20114;-80
2023/06/08 05:22:49;;;;;;;4.07;3.47;;;18.30;99.90;;;;;;4970351;28;20094;-80
2023/06/08 05:25:17;;;;;;;7.32;3.97;;;18.40;99.90;;;;;;4970939;28;20043;-80
2023/06/08 05:27:44;;;;;;;5.25;3.70;;;18.50;99.90;;;;;;4975860;28;20050;-81
2023/06/08 05:30:11;;;;;;;4.90;3.58;;;18.60;99.90;;;;;;4967605;28;20044;-81
2023/06/08 05:32:38;;;;;;;5.75;3.58;;;18.70;99.90;;;;;;4965355;28;20047;-79
2023/06/08 05:35:05;;;;;;;4.43;3.65;;;18.80;99.90;;;;;;4967568;28;20039;-80
2023/06/08 05:37:32;;;;;;;6.28;3.13;;;18.90;99.90;;;;;;4972427;28;20075;-80
2023/06/08 05:39:59;;;;;;;4.53;3.28;;;19.00;99.90;;;;;;4969955;28;20478;-82
2023/06/08 05:42:25;;;;;;;4.70;3.40;;;19.10;99.90;;;;;;4970931;28;20111;-79
2023/06/08 05:44:52;;;;;;;4.57;4.07;;;19.10;99.90;;;;;;4973981;28;20078;-81
2023/06/08 05:47:19;;;;;;;3.92;3.25;;;19.20;99.90;;;;;;4976056;28;20051;-80
2023/06/08 05:49:46;;;;;;;5.85;3.78;;;19.20;99.90;;;;;;4972952;28;20058;-81
2023/06/08 05:52:12;;;;;;;8.15;3.97;;;19.20;99.90;;;;;;4967954;28;20047;-80
2023/06/08 05:54:39;;;;;;;5.10;3.65;;;19.20;99.90;;;;;;4966910;28;20055;-80
2023/06/08 05:57:06;;;;;;;5.15;4.10;;;19.20;99.90;;;;;;4977523;28;20585;-80
2023/06/08 05:59:33;;;;;;;5.03;3.83;;;19.30;99.90;;;;;;4967401;28;20066;-81
2023/06/08 06:02:00;;;;;;;6.30;4.25;;;19.30;99.90;;;;;;4966769;28;20061;-79
2023/06/08 06:04:26;;;;;;;6.43;4.00;;;19.30;99.90;;;;;;4965103;28;20067;-80
2023/06/08 06:07:06;;;;;;;5.72;4.60;;;19.30;99.90;;;;;;4987194;28;20384;-80
2023/06/08 06:09:33;;;;;;;5.40;3.50;;;19.30;99.90;;;;;;4969716;28;20051;-79
2023/06/08 06:11:59;;;;;;;5.20;3.85;;;19.30;99.90;;;;;;4972775;28;20051;-80
2023/06/08 06:14:27;;;;;;;5.57;4.07;;;19.30;99.90;;;;;;4976983;28;20051;-79
2023/06/08 06:16:54;;;;;;;5.70;3.88;;;19.40;99.90;;;;;;4979438;28;20050;-79
2023/06/08 06:19:36;;;;;;;4.88;3.92;;;19.40;99.90;;;;;;4971596;28;20043;-80
2023/06/08 06:22:05;;;;;;;8.70;4.53;;;19.40;99.90;;;;;;4970176;28;20098;-81
2023/06/08 06:24:32;;;;;;;6.40;3.63;;;19.50;99.90;;;;;;4965772;28;20047;-81
2023/06/08 06:26:59;;;;;;;5.82;4.13;;;19.50;99.90;;;;;;4978280;28;20050;-78
2023/06/08 06:29:26;;;;;;;4.72;3.88;;;19.50;99.90;;;;;;4967290;28;20055;-80
2023/06/08 06:31:53;;;;;;;5.72;3.72;;;19.50;99.90;;;;;;4971296;28;20102;-78
2023/06/08 06:34:20;;;;;;;5.00;3.58;;;19.60;99.90;;;;;;4966916;28;20080;-79
2023/06/08 06:36:47;;;;;;;8.23;3.72;;;19.60;99.90;;;;;;4973564;28;20055;-79
2023/06/08 06:39:14;;;;;;;7.18;4.30;;;19.60;99.90;;;;;;4971191;28;20466;-79
2023/06/08 06:41:41;;;;;;;10.38;4.15;;;19.60;99.90;;;;;;4969862;28;20467;-80
2023/06/08 06:44:08;;;;;;;5.50;4.20;;;19.60;99.90;;;;;;4971939;28;20047;-79
2023/06/08 06:46:35;;;;;;;9.95;3.78;;;19.70;99.90;;;;;;4971095;28;20105;-80
2023/06/08 06:49:02;;;;;;;6.85;4.47;;;19.60;99.90;;;;;;4974544;28;20050;-80
2023/06/08 06:51:29;;;;;;;6.25;3.88;;;19.70;99.90;;;;;;4969378;28;20110;-80
2023/06/08 06:53:56;;;;;;;5.97;4.40;;;19.70;99.90;;;;;;4967044;28;20074;-79
2023/06/08 06:56:22;;;;;;;7.88;4.55;;;19.80;99.90;;;;;;4967132;28;20146;-80
2023/06/08 06:58:49;;;;;;;7.45;4.00;;;19.80;99.90;;;;;;4968899;28;20047;-79
2023/06/08 07:01:16;;;;;;;6.63;4.35;;;19.80;99.90;;;;;;4965557;28;20075;-80
2023/06/08 07:03:44;;;;;;;7.05;4.80;;;19.80;99.90;;;;;;4964593;28;20043;-79
2023/06/08 07:06:11;;;;;;;6.38;4.82;;;19.90;99.90;;;;;;4975180;28;20047;-79
2023/06/08 07:08:38;;;;;;;8.38;4.45;;;19.90;99.90;;;;;;4970253;28;20051;-80
2023/06/08 07:11:06;;;;;;;12.02;4.60;;;19.90;99.90;;;;;;4970127;28;20109;-80
2023/06/08 07:13:32;;;;;;;7.90;5.53;;;20.00;99.90;;;;;;4976563;28;20531;-79
2023/06/08 07:16:00;;;;;;;5.97;4.43;;;20.00;99.90;;;;;;4971012;28;20046;-79
2023/06/08 07:18:27;;;;;;;5.40;4.65;;;20.00;99.90;;;;;;4976300;28;20054;-80
2023/06/08 07:20:54;;;;;;;6.38;4.15;;;20.10;99.90;;;;;;4971125;28;20094;-79
2023/06/08 07:23:21;;;;;;;5.75;3.97;;;20.20;99.90;;;;;;4964525;28;20071;-79
2023/06/08 07:26:08;;;;;;;5.93;3.90;;;20.20;99.90;;;;;;4967746;28;20484;-79
2023/06/08 07:28:55;;;;;;;4.90;3.67;;;20.30;99.90;;;;;;4967850;28;20173;-79
2023/06/08 07:31:23;;;;;;;5.28;4.22;;;20.40;99.90;;;;;;4965318;28;20051;-79
2023/06/08 07:33:50;;;;;;;7.05;4.80;;;20.40;99.90;;;;;;4966295;28;20451;-80
2023/06/08 07:36:17;;;;;;;8.60;4.30;;;20.50;99.90;;;;;;4974065;28;20062;-79
2023/06/08 07:38:44;;;;;;;5.78;4.20;;;20.50;99.90;;;;;;4970623;28;20054;-79
2023/06/08 07:41:11;;;;;;;5.25;4.13;;;20.60;99.90;;;;;;4969879;28;20103;-79
2023/06/08 07:43:39;;;;;;;5.05;4.55;;;20.60;99.90;;;;;;4970432;28;20054;-80
2023/06/08 07:46:06;;;;;;;8.27;4.00;;;20.60;99.90;;;;;;4974990;28;20042;-79
2023/06/08 07:48:33;;;;;;;8.80;4.15;;;20.60;99.90;;;;;;4974015;28;20057;-81
2023/06/08 07:51:00;;;;;;;7.07;4.18;;;20.60;99.90;;;;;;4975858;28;20078;-80
2023/06/08 07:53:37;;;;;;;8.38;4.30;;;20.60;99.90;;;;;;4963685;28;20051;-80
2023/06/08 07:56:04;;;;;;;4.55;4.05;;;20.60;99.90;;;;;;4972414;28;20050;-79
2023/06/08 07:58:32;;;;;;;5.82;4.45;;;20.60;99.90;;;;;;4969539;28;20130;-79
2023/06/08 08:01:00;;;;;;;10.30;5.40;;;20.60;99.90;;;;;;4976382;28;20074;-79
2023/06/08 08:03:28;;;;;;;6.93;5.00;;;20.70;99.90;;;;;;4964932;28;20054;-79
2023/06/08 08:05:55;;;;;;;5.82;4.88;;;20.70;99.90;;;;;;4973739;28;20054;-80
2023/06/08 08:08:22;;;;;;;6.38;5.05;;;20.80;99.90;;;;;;4968958;28;20070;-77
2023/06/08 08:10:49;;;;;;;8.57;5.50;;;20.90;99.90;;;;;;4967831;28;20051;-80
2023/06/08 08:13:16;;;;;;;6.28;5.15;;;20.90;99.90;;;;;;4968174;28;20515;-80
2023/06/08 08:15:42;;;;;;;5.85;4.80;;;21.00;99.90;;;;;;4974716;28;20070;-80
2023/06/08 08:18:09;;;;;;;6.13;4.70;;;21.10;99.90;;;;;;4969464;28;20055;-79
2023/06/08 08:20:36;;;;;;;8.68;4.72;;;21.20;99.90;;;;;;4969668;28;20503;-79
2023/06/08 08:23:03;;;;;;;5.28;4.78;;;21.30;99.90;;;;;;4965350;28;20112;-79
2023/06/08 08:25:30;;;;;;;5.20;4.32;;;21.40;99.90;;;;;;4960561;28;20047;-79
2023/06/08 08:27:56;;;;;;;5.75;4.05;;;21.50;99.90;;;;;;4964448;28;20047;-79
2023/06/08 08:30:23;;;;;;;7.15;4.93;;;21.60;99.90;;;;;;4965228;28;20055;-80
2023/06/08 08:32:50;;;;;;;6.45;4.28;;;21.60;99.90;;;;;;4965567;28;20059;-79
2023/06/08 08:35:17;;;;;;;5.43;4.75;;;21.70;99.90;;;;;;4969510;28;20098;-80
2023/06/08 08:37:45;;;;;;;5.20;4.70;;;21.70;99.90;;;;;;4971323;28;20086;-79
2023/06/08 08:40:13;;;;;;;6.47;4.35;;;21.80;99.90;;;;;;4969833;28;20070;-79
2023/06/08 08:42:53;;;;;;;8.05;4.00;;;21.80;99.90;;;;;;4975051;28;20047;-81
2023/06/08 08:45:23;;;;;;;5.03;4.40;;;21.90;99.90;;;;;;4968188;28;20150;-80
2023/06/08 08:47:53;;;;;;;;;;;22.00;99.90;;;;;;4966966;28;20074;-81
2023/06/08 08:50:21;;;;;;;7.30;4.32;;;22.00;99.90;;;;;;4974536;28;19926;-82
2023/06/08 08:52:52;;;;;;;5.15;3.67;;;22.00;99.90;;;;;;4965398;28;20051;-79
2023/06/08 08:55:27;;;;;;;6.00;3.45;;;22.10;99.90;;;;;;4964037;28;20057;-80
2023/06/08 08:58:02;;;;;;;4.05;3.40;;;22.20;99.90;;;;;;4990626;28;20514;-80
2023/06/08 09:00:33;;;;;;;5.82;3.28;;;22.20;99.90;;;;;;4970198;28;20087;-79
2023/06/08 09:03:00;;;;;;;4.75;3.70;;;22.20;99.90;;;;;;4970547;28;20057;-80
2023/06/08 09:05:28;;;;;;;7.55;3.92;;;22.20;99.90;;;;;;4974042;28;20110;-81
2023/06/08 09:07:55;;;;;;;5.10;3.97;;;22.30;99.90;;;;;;4975087;28;20303;-80
2023/06/08 09:10:25;;;;;;;7.93;3.50;;;22.30;99.90;;;;;;4973104;28;20423;-81
2023/06/08 09:12:54;;;;;;;3.70;3.33;;;22.30;99.90;;;;;;4973981;28;20046;-80
2023/06/08 09:15:27;;;;;;;4.40;3.55;;;22.30;99.90;;;;;;4971497;28;20082;-80
2023/06/08 09:17:55;;;;;;;6.32;4.28;;;22.30;99.90;;;;;;4968045;28;20052;-80
2023/06/08 09:20:31;;;;;;;6.32;3.65;;;22.30;99.90;;;;;;4973090;28;20062;-79
2023/06/08 09:23:11;;;;;;;5.63;3.58;;;22.30;99.90;;;;;;4968778;28;20082;-81
2023/06/08 09:25:38;;;;;;;4.73;3.63;;;22.40;99.90;;;;;;4965833;28;20051;-80
2023/06/08 09:28:31;;;;;;;5.15;3.42;;;22.40;99.90;;;;;;4980221;28;20046;-79
2023/06/08 09:30:59;;;;;;;4.47;3.60;;;22.40;99.90;;;;;;4972273;28;20047;-80
2023/06/08 09:33:32;;;;;;;5.63;4.25;;;22.40;99.90;;;;;;4966430;28;20059;-79
2023/06/08 09:35:59;;;;;;;3.92;3.53;;;22.40;99.90;;;;;;4975259;28;20055;-80
2023/06/08 09:38:27;;;;;;;6.88;4.30;;;22.50;99.90;;;;;;4971996;28;20051;-80
2023/06/08 09:41:14;;;;;;;5.38;4.18;;;22.40;99.90;;;;;;4974471;28;20047;-80
2023/06/08 09:43:45;;;;;;;5.53;3.95;;;22.40;99.90;;;;;;4977248;28;20050;-78
2023/06/08 09:46:16;;;;;;;5.57;4.00;;;22.40;99.90;;;;;;4968104;28;20575;-80
2023/06/08 09:48:53;;;;;;;7.90;3.92;;;22.40;99.90;;;;;;4972741;28;20043;-80
2023/06/08 09:51:22;;;;;;;4.00;3.22;;;22.50;99.90;;;;;;4968633;28;20450;-80
2023/06/08 09:53:55;;;;;;;4.47;3.80;;;22.50;99.90;;;;;;4966651;28;20401;-79
2023/06/08 09:56:23;;;;;;;6.95;3.97;;;22.50;99.90;;;;;;4967187;28;20136;-79
2023/06/08 09:58:56;;;;;;;5.07;3.97;;;22.60;99.90;;;;;;4974582;28;20070;-80
2023/06/08 10:01:35;;;;;;;4.40;3.60;;;22.60;99.90;;;;;;4968523;28;20109;-80
2023/06/08 10:04:16;;;;;;;5.60;4.03;;;22.70;99.90;;;;;;4985978;28;20054;-81
2023/06/08 10:06:46;;;;;;;6.22;4.28;;;22.70;99.90;;;;;;4971983;28;20051;-79
2023/06/08 10:09:14;;;;;;;4.47;3.45;;;22.70;99.90;;;;;;4989377;28;20047;-80
2023/06/08 10:11:42;;;;;;;6.25;3.67;;;22.80;99.90;;;;;;4974149;28;20052;-81
2023/06/08 10:14:09;;;;;;;5.03;3.72;;;22.80;99.90;;;;;;4971064;28;20062;-79
2023/06/08 10:16:36;;;;;;;4.72;3.58;;;22.80;99.90;;;;;;4966240;28;20126;-80
2023/06/08 10:19:04;;;;;;;4.25;3.80;;;22.90;99.90;;;;;;4972165;28;20055;-79
2023/06/08 10:21:30;;;;;;;5.22;3.85;;;22.90;99.90;;;;;;4968096;28;20475;-80
2023/06/08 10:23:58;;;;;;;4.82;3.72;;;22.90;99.90;;;;;;4967436;28;20083;-79
2023/06/08 10:26:26;;;;;;;4.05;3.60;;;23.00;99.90;;;;;;4968628;28;20046;-81
2023/06/08 10:29:07;;;;;;;5.55;3.30;;;23.00;99.90;;;;;;4973790;28;20062;-80
2023/06/08 10:31:48;;;;;;;7.75;3.50;;;23.00;99.90;;;;;;4971741;28;20079;-80
2023/06/08 10:34:16;;;;;;;7.97;3.80;;;23.10;99.90;;;;;;4972707;28;20074;-81
2023/06/08 10:36:44;;;;;;;6.43;4.07;;;23.10;99.90;;;;;;4975915;28;20051;-79
2023/06/08 10:39:14;;;;;;;5.85;4.20;;;23.20;99.90;;;;;;4972116;28;20055;-80
2023/06/08 10:41:45;;;;;;;6.10;3.17;;;23.20;99.90;;;;;;4973969;28;20134;-82
2023/06/08 10:44:25;;;;;;;7.45;3.72;;;23.30;99.90;;;;;;4968859;28;20050;-80
2023/06/08 10:47:11;;;;;;;;;;;23.30;99.90;;;;;;4968037;28;20052;-80
2023/06/08 10:49:44;;;;;;;4.28;3.70;;;23.40;99.90;;;;;;4986385;28;20353;-81
2023/06/08 10:52:18;;;;;;;4.22;3.60;;;23.40;99.90;;;;;;4968177;28;20485;-80
2023/06/08 10:54:56;;;;;;;3.67;2.88;;;23.50;99.90;;;;;;4965040;28;20435;-80
2023/06/08 10:57:45;;;;;;;3.97;3.45;;;23.50;99.90;;;;;;4970894;28;20046;-79
2023/06/08 11:00:29;;;;;;;4.90;3.35;;;23.60;99.90;;;;;;4969509;28;20105;-79
2023/06/08 11:02:59;;;;;;;3.67;3.25;;;23.60;99.90;;;;;;4971222;28;20099;-80
2023/06/08 11:05:32;;;;;;;;;;;23.70;99.90;;;;;;4973157;28;20089;-79
2023/06/08 11:08:00;;;;;;;6.15;3.22;;;23.70;99.90;;;;;;4968126;28;20437;-80
2023/06/08 11:10:28;;;;;;;5.38;3.45;;;23.80;99.90;;;;;;4974193;28;20058;-79
2023/06/08 11:12:54;;;;;;;4.82;3.40;;;23.80;99.90;;;;;;4969400;28;20109;-79
2023/06/08 11:15:24;;;;;;;4.72;3.50;;;23.80;99.90;;;;;;4966926;28;20130;-80
2023/06/08 11:17:57;;;;;;;5.88;3.53;;;24.00;99.90;;;;;;4978914;28;20051;-80
2023/06/08 11:20:25;;;;;;;8.05;3.00;;;24.00;99.90;;;;;;4966384;28;20126;-79
2023/06/08 11:22:52;;;;;;;5.07;3.00;;;24.00;99.90;;;;;;4966544;28;20054;-80
2023/06/08 11:25:20;;;;;;;4.22;3.40;;;24.10;99.90;;;;;;4963024;28;20047;-81
2023/06/08 11:27:47;;;;;;;6.47;3.60;;;24.10;99.90;;;;;;4971641;28;20047;-80
2023/06/08 11:30:18;;;;;;;5.47;3.40;;;24.20;99.90;;;;;;4966963;28;20089;-78
2023/06/08 11:32:50;;;;;;;5.85;4.28;;;24.30;99.90;;;;;;4969506;28;20121;-80
2023/06/08 11:35:19;;;;;;;4.45;3.13;;;24.30;99.90;;;;;;4969321;28;20459;-80
2023/06/08 11:37:49;;;;;;;5.57;3.30;;;24.50;99.90;;;;;;4983884;28;20055;-81
2023/06/08 11:40:16;;;;;;;5.88;3.40;;;24.50;99.90;;;;;;4981368;28;20051;-81
2023/06/08 11:42:44;;;;;;;6.40;3.45;;;24.60;99.90;;;;;;4980932;28;20073;-82
2023/06/08 11:45:13;;;;;;;5.25;3.70;;;24.70;99.90;;;;;;4976416;28;20046;-83
2023/06/08 11:47:41;;;;;;;6.15;3.00;;;24.70;99.90;;;;;;4971274;28;20050;-81
2023/06/08 11:50:12;;;;;;;4.28;3.80;;;24.80;99.90;;;;;;4975895;28;20090;-79
2023/06/08 11:52:41;;;;;;;9.25;3.47;;;24.90;99.90;;;;;;4977377;28;20050;-85
2023/06/08 11:55:17;;;;;;;3.35;3.05;;;25.00;99.90;;;;;;4976295;28;20076;-82
2023/06/08 11:57:50;;;;;;;4.82;3.63;;;25.10;99.90;;;;;;4982329;28;20432;-81
2023/06/08 12:00:21;;;;;;;4.50;3.70;;;25.20;99.90;;;;;;4981058;28;20043;-82
2023/06/08 12:02:49;;;;;;;4.70;3.47;;;25.20;99.90;;;;;;4980726;28;20073;-83
2023/06/08 12:05:18;;;;;;;9.13;4.15;;;25.20;99.90;;;;;;4979858;28;20142;-83
2023/06/08 12:07:59;;;;;;;6.75;3.88;;;25.20;99.90;;;;;;4976633;28;20046;-82
2023/06/08 12:10:35;;;;;;;8.70;4.03;;;25.30;99.90;;;;;;4980448;28;20086;-80
2023/06/08 12:13:19;;;;;;;5.43;3.60;;;25.30;99.90;;;;;;4980117;28;20051;-82
2023/06/08 12:15:48;;;;;;;6.47;3.70;;;25.30;99.90;;;;;;4973323;28;20079;-81
2023/06/08 12:18:17;;;;;;;7.00;3.92;;;25.30;99.90;;;;;;4973024;28;20105;-78
2023/06/08 12:20:51;;;;;;;6.22;3.42;;;25.40;99.90;;;;;;4977423;28;20135;-79
2023/06/08 12:23:17;;;;;;;4.63;3.58;;;25.40;99.90;;;;;;4975951;28;20074;-83
2023/06/08 12:25:47;;;;;;;4.05;3.53;;;25.50;99.90;;;;;;4977694;28;20043;-83
2023/06/08 12:28:24;;;;;;;5.78;3.35;;;25.60;99.90;;;;;;4982834;28;20078;-81
2023/06/08 12:30:51;;;;;;;5.68;3.60;;;25.70;99.90;;;;;;4982567;28;20144;-84
2023/06/08 12:33:19;;;;;;;8.77;3.30;;;25.80;99.90;;;;;;4982101;28;20045;-82
2023/06/08 12:35:50;;;;;;;4.25;3.85;;;26.00;99.80;;;;;;4980817;28;20047;-83
2023/06/08 12:38:21;;;;;;;3.83;2.95;;;26.10;99.90;;;;;;4977501;28;20668;-83
2023/06/08 12:40:51;;;;;;;5.70;3.33;;;26.30;99.40;;;;;;4984338;28;20079;-84
2023/06/08 12:43:19;;;;;;;5.95;3.53;;;26.40;99.40;;;;;;4975976;28;20072;-83
2023/06/08 12:45:46;;;;;;;5.72;3.40;;;26.50;99.10;;;;;;4974543;28;20043;-82
2023/06/08 12:48:14;;;;;;;5.82;3.33;;;26.50;99.20;;;;;;4974037;28;20061;-80
2023/06/08 12:50:40;;;;;;;3.80;3.28;;;26.60;98.70;;;;;;4981686;28;20458;-84
2023/06/08 12:53:07;;;;;;;3.92;3.42;;;26.80;98.60;;;;;;4980258;28;20044;-84
2023/06/08 12:55:34;;;;;;;5.60;3.70;;;26.80;99.10;;;;;;4984925;28;20071;-79
2023/06/08 12:58:01;;;;;;;4.13;3.13;;;26.80;99.30;;;;;;4983282;28;20043;-83
2023/06/08 13:00:28;;;;;;;5.03;3.22;;;26.80;98.90;;;;;;4983179;28;20062;-82